TimePDT,TemperatureF,Dew PointF,Humidity,Sea Level PressureIn,VisibilityMPH,Wind Direction,Wind SpeedMPH,Gust SpeedMPH,PrecipitationIn,Events,Conditions,WindDirDegrees,DateUTC
12:56 AM,66.9,42.1,40,29.99,10.0,Calm,Calm,-,N/A,,Clear,0,2013-08-20 07:56:00
1:56 AM,64.0,43.0,46,29.98,10.0,Calm,Calm,-,N/A,,Clear,0,2013-08-20 08:56:00
2:56 AM,62.1,43.0,50,29.97,10.0,Calm,Calm,-,N/A,,Clear,0,2013-08-20 09:56:00
3:56 AM,61.0,45.0,56,29.97,10.0,Calm,Calm,-,N/A,,Clear,0,2013-08-20 10:56:00
4:56 AM,61.0,45.0,56,29.98,10.0,Variable,3.5,-,N/A,,Clear,0,2013-08-20 11:56:00
5:56 AM,62.1,45.0,53,29.98,10.0,Calm,Calm,-,N/A,,Clear,0,2013-08-20 12:56:00
6:56 AM,60.1,46.0,60,30.00,10.0,Calm,Calm,-,N/A,,Clear,0,2013-08-20 13:56:00
7:56 AM,63.0,48.0,58,30.01,10.0,Calm,Calm,-,N/A,,Clear,0,2013-08-20 14:56:00
8:56 AM,68.0,50.0,52,30.01,10.0,Calm,Calm,-,N/A,,Clear,0,2013-08-20 15:56:00
9:56 AM,73.9,52.0,46,30.01,10.0,Variable,3.5,-,N/A,,Clear,0,2013-08-20 16:56:00
10:56 AM,80.1,50.0,35,30.01,10.0,WNW,4.6,-,N/A,,Clear,290,2013-08-20 17:56:00
11:56 AM,80.1,48.9,34,30.00,10.0,Calm,Calm,-,N/A,,Partly Cloudy,0,2013-08-20 18:56:00
12:56 PM,82.9,52.0,34,29.99,10.0,Calm,Calm,-,N/A,,Clear,0,2013-08-20 19:56:00
1:56 PM,90.0,50.0,25,29.97,10.0,Variable,3.5,-,N/A,,Clear,0,2013-08-20 20:56:00
2:56 PM,82.9,50.0,32,29.98,10.0,Variable,3.5,-,N/A,,Partly Cloudy,0,2013-08-20 21:56:00
3:56 PM,79.0,54.0,42,29.98,10.0,Calm,Calm,-,N/A,,Overcast,0,2013-08-20 22:56:00
4:56 PM,77.0,55.0,47,29.96,10.0,Calm,Calm,-,N/A,,Clear,0,2013-08-20 23:56:00
5:56 PM,75.0,57.0,53,29.95,10.0,Calm,Calm,-,N/A,,Clear,0,2013-08-21 00:56:00
6:56 PM,75.0,57.9,55,29.94,10.0,Calm,Calm,-,N/A,,Partly Cloudy,0,2013-08-21 01:56:00
7:56 PM,70.0,55.0,59,29.95,10.0,Calm,Calm,-,N/A,,Clear,0,2013-08-21 02:56:00
8:56 PM,66.0,50.0,56,29.96,10.0,NE,3.5,-,N/A,,Partly Cloudy,50,2013-08-21 03:56:00
9:56 PM,64.9,48.0,54,29.96,10.0,NE,3.5,-,N/A,,Clear,50,2013-08-21 04:56:00
10:56 PM,62.1,46.9,58,29.96,10.0,Calm,Calm,-,N/A,,Clear,0,2013-08-21 05:56:00
11:56 PM,60.1,46.9,62,29.96,10.0,Calm,Calm,-,N/A,,Clear,0,2013-08-21 06:56:00